createdAt,value
2016-10-01T00:00:09.604Z,1012.54
2016-10-01T00:01:10.322Z,1012.49
2016-10-01T00:02:11.014Z,1012.48
2016-10-01T00:03:11.696Z,1012.44
2016-10-01T00:04:12.413Z,1012.43
2016-10-01T00:05:13.082Z,1012.41
2016-10-01T00:06:13.761Z,1012.43
2016-10-01T00:07:14.442Z,1012.44
2016-10-01T00:08:15.129Z,1012.43
2016-10-01T00:09:15.800Z,1012.43
2016-10-01T00:10:16.486Z,1012.42
2016-10-01T00:11:17.175Z,1012.46
2016-10-01T00:12:17.869Z,1012.46
2016-10-01T00:13:18.556Z,1012.48
2016-10-01T00:14:19.237Z,1012.47
2016-10-01T00:15:19.914Z,1012.46
2016-10-01T00:16:20.602Z,1012.46
2016-10-01T00:17:21.290Z,1012.44
2016-10-01T00:18:21.982Z,1012.5
2016-10-01T00:19:22.662Z,1012.45
2016-10-01T00:20:23.337Z,1012.47
2016-10-01T00:21:24.040Z,1012.46
2016-10-01T00:22:24.714Z,1012.52
2016-10-01T00:23:25.427Z,1012.51
2016-10-01T00:24:26.112Z,1012.49
2016-10-01T00:25:26.802Z,1012.5
2016-10-01T00:26:27.512Z,1012.47
2016-10-01T00:27:28.181Z,1012.47
2016-10-01T00:28:28.876Z,1012.46
2016-10-01T00:29:29.572Z,1012.44
2016-10-01T00:30:30.267Z,1012.42
2016-10-01T00:31:30.956Z,1012.43
2016-10-01T00:32:31.640Z,1012.42
2016-10-01T00:33:32.337Z,1012.41
2016-10-01T00:34:33.036Z,1012.44
2016-10-01T00:35:33.734Z,1012.38
2016-10-01T00:36:34.424Z,1012.35
2016-10-01T00:37:35.097Z,1012.42
2016-10-01T00:38:35.774Z,1012.4
2016-10-01T00:39:36.451Z,1012.36
2016-10-01T00:40:37.158Z,1012.34
2016-10-01T00:41:37.841Z,1012.35
2016-10-01T00:42:38.521Z,1012.33
2016-10-01T00:43:39.205Z,1012.37
2016-10-01T00:44:39.882Z,1012.37
2016-10-01T00:45:40.573Z,1012.37
2016-10-01T00:46:41.274Z,1012.4
2016-10-01T00:47:41.969Z,1012.44
2016-10-01T00:48:42.657Z,1012.41
2016-10-01T00:49:43.329Z,1012.37
2016-10-01T00:50:44.010Z,1012.36
2016-10-01T00:51:44.692Z,1012.35
2016-10-01T00:52:45.395Z,1012.35
2016-10-01T00:53:46.079Z,1012.36
2016-10-01T00:54:46.750Z,1012.35
2016-10-01T00:55:47.431Z,1012.32
2016-10-01T00:56:48.092Z,1012.26
2016-10-01T00:57:48.769Z,1012.25
2016-10-01T00:58:49.435Z,1012.29
2016-10-01T00:59:50.123Z,1012.26
2016-10-01T01:00:50.813Z,1012.26
2016-10-01T01:01:51.496Z,1012.25
2016-10-01T01:02:52.173Z,1012.27
2016-10-01T01:03:52.849Z,1012.28
2016-10-01T01:04:53.539Z,1012.24
2016-10-01T01:05:54.225Z,1012.27
2016-10-01T01:06:54.916Z,1012.23
2016-10-01T01:07:55.611Z,1012.17
2016-10-01T01:08:56.288Z,1012.18
2016-10-01T01:09:57.004Z,1012.16
2016-10-01T01:10:57.692Z,1012.11
2016-10-01T01:11:58.420Z,1012.1
2016-10-01T01:12:59.120Z,1012.12
2016-10-01T01:13:59.794Z,1012.1
2016-10-01T01:15:00.468Z,1012.08
2016-10-01T01:16:01.144Z,1012.08
2016-10-01T01:17:01.812Z,1012.03
2016-10-01T01:18:02.490Z,1011.99
2016-10-01T01:19:03.157Z,1011.94
2016-10-01T01:20:03.829Z,1011.89
2016-10-01T01:21:04.507Z,1011.89
2016-10-01T01:22:05.214Z,1011.88
2016-10-01T01:23:05.903Z,1011.93
2016-10-01T01:24:06.575Z,1011.9
2016-10-01T01:25:07.243Z,1011.91
2016-10-01T01:26:07.917Z,1011.91
2016-10-01T01:27:08.589Z,1011.93
2016-10-01T01:28:09.267Z,1011.93
2016-10-01T01:29:09.962Z,1011.91
2016-10-01T01:30:10.653Z,1011.89
2016-10-01T01:31:11.323Z,1011.95
2016-10-01T01:32:12.006Z,1011.93
2016-10-01T01:33:12.693Z,1011.9
2016-10-01T01:34:13.376Z,1011.88
2016-10-01T01:35:14.047Z,1011.92
2016-10-01T01:36:14.726Z,1011.9
2016-10-01T01:37:15.405Z,1011.91
2016-10-01T01:38:16.093Z,1011.9
2016-10-01T01:39:16.792Z,1011.91
2016-10-01T01:40:17.475Z,1011.88
2016-10-01T01:41:18.158Z,1011.93
2016-10-01T01:42:18.829Z,1011.92
2016-10-01T01:43:19.507Z,1011.92
2016-10-01T01:44:20.179Z,1011.89
2016-10-01T01:45:20.868Z,1011.92
2016-10-01T01:46:21.550Z,1011.92
2016-10-01T01:47:22.267Z,1011.86
2016-10-01T01:48:22.948Z,1011.88
2016-10-01T01:49:23.643Z,1011.9
2016-10-01T01:50:24.337Z,1011.88
2016-10-01T01:51:25.011Z,1011.87
2016-10-01T01:52:25.687Z,1011.88
2016-10-01T01:53:26.367Z,1011.87
2016-10-01T01:54:27.026Z,1011.85
2016-10-01T01:55:27.703Z,1011.91
2016-10-01T01:56:28.377Z,1011.92
2016-10-01T01:57:29.047Z,1011.93
2016-10-01T01:58:29.719Z,1011.92
2016-10-01T01:59:30.386Z,1011.94
2016-10-01T02:00:31.065Z,1011.92
2016-10-01T02:01:31.740Z,1011.91
2016-10-01T02:02:32.410Z,1011.92
2016-10-01T02:03:33.087Z,1011.92
2016-10-01T02:04:33.763Z,1011.91
2016-10-01T02:05:34.452Z,1011.89
2016-10-01T02:06:35.121Z,1011.83
2016-10-01T02:07:35.822Z,1011.83
2016-10-01T02:08:36.495Z,1011.84
2016-10-01T02:09:37.170Z,1011.87
2016-10-01T02:10:37.848Z,1011.84
2016-10-01T02:11:38.518Z,1011.86
2016-10-01T02:12:39.187Z,1011.83
2016-10-01T02:13:39.866Z,1011.83
2016-10-01T02:14:40.529Z,1011.78
2016-10-01T02:15:41.208Z,1011.75
2016-10-01T02:16:41.876Z,1011.68
2016-10-01T02:17:42.551Z,1011.66
2016-10-01T02:18:43.227Z,1011.68
2016-10-01T02:19:43.908Z,1011.65
2016-10-01T02:20:44.594Z,1011.68
2016-10-01T02:21:45.283Z,1011.65
2016-10-01T02:22:45.960Z,1011.67
2016-10-01T02:23:46.633Z,1011.67
2016-10-01T02:24:47.308Z,1011.63
2016-10-01T02:25:47.993Z,1011.65
2016-10-01T02:26:48.689Z,1011.66
2016-10-01T02:27:49.379Z,1011.66
2016-10-01T02:28:50.062Z,1011.69
2016-10-01T02:29:50.748Z,1011.71
2016-10-01T02:30:51.435Z,1011.69
2016-10-01T02:31:52.106Z,1011.7
2016-10-01T02:32:52.779Z,1011.72
2016-10-01T02:33:53.471Z,1011.68
2016-10-01T02:34:54.166Z,1011.68
2016-10-01T02:35:54.843Z,1011.65
2016-10-01T02:36:55.532Z,1011.62
2016-10-01T02:37:56.203Z,1011.65
2016-10-01T02:38:56.893Z,1011.62
2016-10-01T02:39:57.570Z,1011.61
2016-10-01T02:40:58.264Z,1011.57
2016-10-01T02:41:58.947Z,1011.61
2016-10-01T02:42:59.637Z,1011.59
2016-10-01T02:44:00.317Z,1011.58
2016-10-01T02:45:01.001Z,1011.5
2016-10-01T02:46:01.672Z,1011.51
2016-10-01T02:47:02.353Z,1011.52
2016-10-01T02:48:03.032Z,1011.5
2016-10-01T02:49:03.712Z,1011.47
2016-10-01T02:50:04.393Z,1011.51
2016-10-01T02:51:05.075Z,1011.48
2016-10-01T02:52:05.764Z,1011.51
2016-10-01T02:53:06.435Z,1011.52
2016-10-01T02:54:07.108Z,1011.52
2016-10-01T02:55:07.791Z,1011.49
2016-10-01T02:56:08.497Z,1011.44
2016-10-01T02:57:09.173Z,1011.45
2016-10-01T02:58:09.847Z,1011.49
2016-10-01T02:59:10.517Z,1011.56
2016-10-01T03:00:11.194Z,1011.5
2016-10-01T03:01:11.868Z,1011.58
2016-10-01T03:02:12.549Z,1011.57
2016-10-01T03:03:13.229Z,1011.53
2016-10-01T03:04:13.917Z,1011.5
2016-10-01T03:05:14.590Z,1011.53
2016-10-01T03:06:15.263Z,1011.54
2016-10-01T03:07:15.957Z,1011.6
2016-10-01T03:08:16.645Z,1011.57
2016-10-01T03:09:17.316Z,1011.58
2016-10-01T03:10:18.006Z,1011.65
2016-10-01T03:11:18.702Z,1011.66
2016-10-01T03:12:19.391Z,1011.65
2016-10-01T03:13:20.073Z,1011.67
2016-10-01T03:14:20.750Z,1011.66
2016-10-01T03:15:21.439Z,1011.65
2016-10-01T03:16:22.126Z,1011.7
2016-10-01T03:17:22.794Z,1011.69
2016-10-01T03:18:23.481Z,1011.67
2016-10-01T03:19:24.167Z,1011.63
2016-10-01T03:20:24.846Z,1011.61
2016-10-01T03:21:25.530Z,1011.62
2016-10-01T03:22:26.209Z,1011.6
2016-10-01T03:23:26.897Z,1011.54
2016-10-01T03:24:27.596Z,1011.56
2016-10-01T03:25:28.272Z,1011.53
2016-10-01T03:26:28.968Z,1011.51
2016-10-01T03:27:29.638Z,1011.46
2016-10-01T03:28:30.302Z,1011.49
2016-10-01T03:29:31.002Z,1011.51
2016-10-01T03:30:31.690Z,1011.5
2016-10-01T03:31:32.362Z,1011.52
2016-10-01T03:32:33.064Z,1011.52
2016-10-01T03:33:33.754Z,1011.45
2016-10-01T03:34:34.461Z,1011.43
2016-10-01T03:35:35.128Z,1011.44
2016-10-01T03:36:35.789Z,1011.39
2016-10-01T03:37:36.463Z,1011.41
2016-10-01T03:38:37.135Z,1011.37
2016-10-01T03:39:37.832Z,1011.4
2016-10-01T03:40:38.515Z,1011.37
2016-10-01T03:41:39.206Z,1011.35
2016-10-01T03:42:39.879Z,1011.33
2016-10-01T03:43:40.555Z,1011.3
2016-10-01T03:44:41.224Z,1011.33
2016-10-01T03:45:41.893Z,1011.3
2016-10-01T03:46:42.599Z,1011.3
2016-10-01T03:47:43.276Z,1011.33
2016-10-01T03:48:43.950Z,1011.34
2016-10-01T03:49:44.625Z,1011.34
2016-10-01T03:50:45.312Z,1011.33
2016-10-01T03:51:45.985Z,1011.32
2016-10-01T03:52:46.683Z,1011.34
2016-10-01T03:53:47.356Z,1011.33
2016-10-01T03:54:48.052Z,1011.33
2016-10-01T03:55:48.728Z,1011.31
2016-10-01T03:56:49.409Z,1011.3
2016-10-01T03:57:50.082Z,1011.28
2016-10-01T03:58:50.772Z,1011.26
2016-10-01T03:59:51.467Z,1011.27
2016-10-01T04:00:52.163Z,1011.26
2016-10-01T04:01:52.834Z,1011.25
2016-10-01T04:02:53.515Z,1011.2
2016-10-01T04:03:54.203Z,1011.2
2016-10-01T04:04:54.893Z,1011.18
2016-10-01T04:05:55.564Z,1011.19
2016-10-01T04:06:56.248Z,1011.22
2016-10-01T04:07:56.921Z,1011.16
2016-10-01T04:08:57.591Z,1011.19
2016-10-01T04:09:58.261Z,1011.19
2016-10-01T04:10:58.940Z,1011.22
2016-10-01T04:11:59.631Z,1011.23
2016-10-01T04:13:00.316Z,1011.28
2016-10-01T04:14:00.992Z,1011.3
2016-10-01T04:15:01.677Z,1011.29
2016-10-01T04:16:02.366Z,1011.3
2016-10-01T04:17:03.066Z,1011.27
2016-10-01T04:18:03.753Z,1011.27
2016-10-01T04:19:04.447Z,1011.27
2016-10-01T04:20:05.131Z,1011.29
2016-10-01T04:21:05.806Z,1011.26
2016-10-01T04:22:06.481Z,1011.23
2016-10-01T04:23:07.165Z,1011.25
2016-10-01T04:24:07.841Z,1011.26
2016-10-01T04:25:08.536Z,1011.21
2016-10-01T04:26:09.216Z,1011.25
2016-10-01T04:27:09.891Z,1011.27
2016-10-01T04:28:10.567Z,1011.28
2016-10-01T04:29:11.238Z,1011.3
2016-10-01T04:30:11.914Z,1011.35
2016-10-01T04:31:12.604Z,1011.34
2016-10-01T04:32:13.297Z,1011.34
2016-10-01T04:33:13.978Z,1011.34
2016-10-01T04:34:14.653Z,1011.31
2016-10-01T04:35:15.324Z,1011.34
2016-10-01T04:36:16.000Z,1011.33
2016-10-01T04:37:16.684Z,1011.31
2016-10-01T04:38:17.366Z,1011.25
2016-10-01T04:39:18.052Z,1011.25
2016-10-01T04:40:18.738Z,1011.23
2016-10-01T04:41:19.419Z,1011.25
2016-10-01T04:42:20.107Z,1011.24
2016-10-01T04:43:20.795Z,1011.25
2016-10-01T04:44:21.487Z,1011.29
2016-10-01T04:45:22.158Z,1011.26
2016-10-01T04:46:22.824Z,1011.27
2016-10-01T04:47:23.494Z,1011.27
2016-10-01T04:48:24.169Z,1011.26
2016-10-01T04:49:24.844Z,1011.3
2016-10-01T04:50:25.522Z,1011.27
2016-10-01T04:51:26.220Z,1011.27
2016-10-01T04:52:26.917Z,1011.22
2016-10-01T04:53:27.588Z,1011.25
2016-10-01T04:54:28.255Z,1011.3
2016-10-01T04:55:28.929Z,1011.32
2016-10-01T04:56:29.619Z,1011.36
2016-10-01T04:57:30.306Z,1011.35
2016-10-01T04:58:30.977Z,1011.34
2016-10-01T04:59:31.664Z,1011.31
2016-10-01T05:00:32.341Z,1011.3
2016-10-01T05:01:33.014Z,1011.31
2016-10-01T05:02:33.685Z,1011.27
2016-10-01T05:03:34.359Z,1011.26
2016-10-01T05:04:35.044Z,1011.27
2016-10-01T05:05:35.738Z,1011.28
2016-10-01T05:06:36.455Z,1011.26
2016-10-01T05:07:37.131Z,1011.25
2016-10-01T05:08:37.822Z,1011.27
2016-10-01T05:09:38.508Z,1011.26
2016-10-01T05:10:39.184Z,1011.21
2016-10-01T05:11:39.853Z,1011.2
2016-10-01T05:12:40.531Z,1011.22
2016-10-01T05:13:41.199Z,1011.21
2016-10-01T05:14:41.877Z,1011.24
2016-10-01T05:15:42.545Z,1011.24
2016-10-01T05:16:43.237Z,1011.22
2016-10-01T05:17:43.884Z,1011.24
2016-10-01T05:18:44.564Z,1011.23
2016-10-01T05:19:45.242Z,1011.27
2016-10-01T05:20:45.921Z,1011.25
2016-10-01T05:21:46.599Z,1011.29
2016-10-01T05:22:47.271Z,1011.31
2016-10-01T05:23:47.969Z,1011.31
2016-10-01T05:24:48.643Z,1011.29
2016-10-01T05:25:49.340Z,1011.33
2016-10-01T05:26:50.031Z,1011.36
2016-10-01T05:27:50.714Z,1011.37
2016-10-01T05:28:51.383Z,1011.35
2016-10-01T05:29:52.057Z,1011.36
2016-10-01T05:30:52.731Z,1011.36
2016-10-01T05:31:53.441Z,1011.33
2016-10-01T05:32:54.132Z,1011.34
2016-10-01T05:33:54.817Z,1011.32
2016-10-01T05:34:55.497Z,1011.29
2016-10-01T05:35:56.199Z,1011.31
2016-10-01T05:36:56.875Z,1011.28
2016-10-01T05:37:57.558Z,1011.31
2016-10-01T05:38:58.230Z,1011.34
2016-10-01T05:39:58.907Z,1011.34
2016-10-01T05:40:59.574Z,1011.36
2016-10-01T05:42:00.242Z,1011.36
2016-10-01T05:43:00.919Z,1011.39
2016-10-01T05:44:01.590Z,1011.38
2016-10-01T05:45:02.269Z,1011.36
2016-10-01T05:46:02.953Z,1011.35
2016-10-01T05:47:03.634Z,1011.41
2016-10-01T05:48:04.318Z,1011.44
2016-10-01T05:49:04.998Z,1011.42
2016-10-01T05:50:05.671Z,1011.43
2016-10-01T05:51:06.347Z,1011.41
2016-10-01T05:52:07.019Z,1011.42
2016-10-01T05:53:07.695Z,1011.42
2016-10-01T05:54:08.366Z,1011.42
2016-10-01T05:55:09.048Z,1011.4
2016-10-01T05:56:09.738Z,1011.37
2016-10-01T05:57:10.422Z,1011.38
2016-10-01T05:58:11.098Z,1011.33
2016-10-01T05:59:11.773Z,1011.35
2016-10-01T06:00:12.445Z,1011.32
2016-10-01T06:01:13.113Z,1011.33
2016-10-01T06:02:13.816Z,1011.32
2016-10-01T06:03:14.506Z,1011.31
2016-10-01T06:04:15.189Z,1011.36
2016-10-01T06:05:15.868Z,1011.32
2016-10-01T06:06:16.537Z,1011.34
2016-10-01T06:07:17.215Z,1011.33
2016-10-01T06:08:17.879Z,1011.26
2016-10-01T06:09:18.563Z,1011.25
2016-10-01T06:10:19.237Z,1011.23
2016-10-01T06:11:19.909Z,1011.19
2016-10-01T06:12:20.619Z,1011.19
2016-10-01T06:13:21.296Z,1011.17
2016-10-01T06:14:21.973Z,1011.17
2016-10-01T06:15:22.649Z,1011.14
2016-10-01T06:16:23.343Z,1011.17
2016-10-01T06:17:24.028Z,1011.17
2016-10-01T06:18:24.715Z,1011.18
2016-10-01T06:19:25.399Z,1011.18
2016-10-01T06:20:26.077Z,1011.19
2016-10-01T06:21:26.782Z,1011.29
2016-10-01T06:22:27.457Z,1011.3
2016-10-01T06:23:28.128Z,1011.3
2016-10-01T06:24:28.804Z,1011.3
2016-10-01T06:25:29.499Z,1011.34
2016-10-01T06:26:30.247Z,1011.37
2016-10-01T06:27:30.938Z,1011.31
2016-10-01T06:28:31.817Z,1011.3
2016-10-01T06:29:32.503Z,1011.29
2016-10-01T06:30:33.218Z,1011.32
2016-10-01T06:31:33.894Z,1011.28
2016-10-01T06:32:34.592Z,1011.28
2016-10-01T06:33:35.286Z,1011.29
2016-10-01T06:34:35.966Z,1011.28
2016-10-01T06:35:36.650Z,1011.26
2016-10-01T06:36:37.328Z,1011.3
2016-10-01T06:37:38.002Z,1011.28
2016-10-01T06:38:38.673Z,1011.27
2016-10-01T06:39:39.348Z,1011.32
2016-10-01T06:40:40.035Z,1011.29
2016-10-01T06:41:40.711Z,1011.29
2016-10-01T06:42:41.418Z,1011.33
2016-10-01T06:43:42.103Z,1011.29
2016-10-01T06:44:42.778Z,1011.25
2016-10-01T06:45:43.450Z,1011.27
2016-10-01T06:46:44.132Z,1011.26
2016-10-01T06:47:44.815Z,1011.28
2016-10-01T06:48:45.519Z,1011.31
2016-10-01T06:49:46.210Z,1011.29
2016-10-01T06:50:46.897Z,1011.3
2016-10-01T06:51:47.598Z,1011.28
2016-10-01T06:52:48.301Z,1011.29
2016-10-01T06:53:49.005Z,1011.27
2016-10-01T06:54:49.691Z,1011.2
2016-10-01T06:55:50.383Z,1011.14
2016-10-01T06:56:51.072Z,1011.06
2016-10-01T06:57:51.752Z,1010.99
2016-10-01T06:58:52.424Z,1010.97
2016-10-01T06:59:53.099Z,1010.97
2016-10-01T07:00:53.773Z,1010.97
2016-10-01T07:01:54.454Z,1010.98
2016-10-01T07:02:55.138Z,1010.99
2016-10-01T07:03:55.827Z,1011
2016-10-01T07:04:56.509Z,1010.98
2016-10-01T07:05:57.189Z,1011.01
2016-10-01T07:06:57.882Z,1011.02
2016-10-01T07:07:58.564Z,1011.04
2016-10-01T07:08:59.249Z,1011.05
2016-10-01T07:09:59.930Z,1011.04
2016-10-01T07:11:00.627Z,1011.02
2016-10-01T07:12:01.308Z,1011.02
2016-10-01T07:13:02.007Z,1011.01
2016-10-01T07:14:02.699Z,1011.04
2016-10-01T07:15:03.384Z,1011.05
2016-10-01T07:16:04.086Z,1011.02
2016-10-01T07:17:04.776Z,1011.03
2016-10-01T07:18:05.459Z,1011.02
2016-10-01T07:19:06.135Z,1011.01
2016-10-01T07:20:06.814Z,1011.13
2016-10-01T07:21:07.508Z,1011.19
2016-10-01T07:22:08.191Z,1011.3
2016-10-01T07:23:08.900Z,1011.3
2016-10-01T07:24:09.580Z,1011.31
2016-10-01T07:25:10.268Z,1011.3
2016-10-01T07:26:10.947Z,1011.27
2016-10-01T07:27:11.654Z,1011.23
2016-10-01T07:28:12.339Z,1011.19
2016-10-01T07:29:13.063Z,1011.19
2016-10-01T07:30:13.810Z,1011.14
2016-10-01T07:31:14.493Z,1011.12
2016-10-01T07:32:15.194Z,1011.1
2016-10-01T07:33:15.898Z,1011.13
2016-10-01T07:34:16.625Z,1011.15
2016-10-01T07:35:17.312Z,1011.15
2016-10-01T07:36:18.046Z,1011.14
2016-10-01T07:37:18.741Z,1011.16
2016-10-01T07:38:19.432Z,1011.19
2016-10-01T07:39:20.130Z,1011.19
2016-10-01T07:40:20.842Z,1011.24
2016-10-01T07:41:21.547Z,1011.26
2016-10-01T07:42:22.289Z,1011.23
2016-10-01T07:43:22.990Z,1011.2
2016-10-01T07:44:23.727Z,1011.23
2016-10-01T07:45:25.030Z,1011.22
2016-10-01T07:46:26.015Z,1011.21
2016-10-01T07:47:26.777Z,1011.16
2016-10-01T07:48:27.500Z,1011.19
2016-10-01T07:49:28.244Z,1011.19
2016-10-01T07:50:28.931Z,1011.15
2016-10-01T07:51:29.624Z,1011.11
2016-10-01T07:52:30.313Z,1011.14
2016-10-01T07:53:31.029Z,1011.16
2016-10-01T07:54:31.709Z,1011.16
2016-10-01T07:55:32.417Z,1011.18
2016-10-01T07:56:33.120Z,1011.17
2016-10-01T07:57:33.861Z,1011.16
2016-10-01T07:58:34.582Z,1011.17
2016-10-01T07:59:35.272Z,1011.18
2016-10-01T08:00:36.006Z,1011.15
2016-10-01T08:01:36.725Z,1011.17
2016-10-01T08:02:37.432Z,1011.17
2016-10-01T08:03:38.131Z,1011.14
2016-10-01T08:04:38.824Z,1011.16
2016-10-01T08:05:39.516Z,1011.16
2016-10-01T08:06:40.201Z,1011.19
2016-10-01T08:07:40.891Z,1011.19
2016-10-01T08:08:41.584Z,1011.17
2016-10-01T08:09:42.299Z,1011.15
2016-10-01T08:10:42.993Z,1011.17
2016-10-01T08:11:43.685Z,1011.17
2016-10-01T08:12:44.389Z,1011.17
2016-10-01T08:13:45.130Z,1011.16
2016-10-01T08:14:45.828Z,1011.12
2016-10-01T08:15:46.517Z,1011.05
2016-10-01T08:16:47.247Z,1011.02
2016-10-01T08:17:47.951Z,1010.98
2016-10-01T08:18:48.648Z,1010.99
2016-10-01T08:19:49.344Z,1010.94
2016-10-01T08:20:50.029Z,1010.95
2016-10-01T08:21:50.713Z,1010.93
2016-10-01T08:22:51.403Z,1010.89
2016-10-01T08:23:52.091Z,1010.92
2016-10-01T08:24:52.787Z,1010.9
2016-10-01T08:25:53.482Z,1010.92
2016-10-01T08:26:54.182Z,1010.95
2016-10-01T08:27:54.872Z,1010.94
2016-10-01T08:28:55.553Z,1010.94
2016-10-01T08:29:56.245Z,1010.92
2016-10-01T08:30:57.054Z,1011
2016-10-01T08:31:57.746Z,1011.03
2016-10-01T08:32:58.437Z,1011.03
2016-10-01T08:33:59.138Z,1011.03
2016-10-01T08:34:59.836Z,1011.06
2016-10-01T08:36:00.567Z,1011.05
2016-10-01T08:37:01.291Z,1011.02
2016-10-01T08:38:01.965Z,1011.04
2016-10-01T08:39:02.713Z,1011.03
2016-10-01T08:40:03.428Z,1011.04
2016-10-01T08:41:04.136Z,1011.05
2016-10-01T08:42:04.841Z,1011.01
2016-10-01T08:43:05.535Z,1011.03
2016-10-01T08:44:06.239Z,1011.06
2016-10-01T08:45:06.924Z,1011.05
2016-10-01T08:46:07.624Z,1011.09
2016-10-01T08:47:08.306Z,1011.06
2016-10-01T08:48:09.019Z,1011.02
2016-10-01T08:49:09.696Z,1011.04
2016-10-01T08:50:10.488Z,1011.03
2016-10-01T08:51:11.270Z,1010.99
2016-10-01T08:52:11.946Z,1011.01
2016-10-01T08:53:12.680Z,1011.02
2016-10-01T08:54:13.410Z,1011.08
2016-10-01T08:55:14.087Z,1011.09
2016-10-01T08:56:14.858Z,1011.07
2016-10-01T08:57:15.561Z,1011.06
2016-10-01T08:58:17.138Z,1011.02
2016-10-01T08:59:17.832Z,1011.07
2016-10-01T09:00:18.589Z,1011.07
2016-10-01T09:01:19.332Z,1011.07
2016-10-01T09:02:20.193Z,1011.11
2016-10-01T09:03:20.983Z,1011.14
2016-10-01T09:04:21.840Z,1011.14
2016-10-01T09:05:22.635Z,1011.11
2016-10-01T09:06:23.452Z,1011.1
2016-10-01T09:07:24.182Z,1011.11
2016-10-01T09:08:25.038Z,1011.13
2016-10-01T09:09:25.855Z,1011.13
2016-10-01T09:10:26.602Z,1011.16
2016-10-01T09:11:27.347Z,1011.16
2016-10-01T09:12:28.062Z,1011.13
2016-10-01T09:13:28.875Z,1011.11
2016-10-01T09:14:29.688Z,1011.11
2016-10-01T09:15:30.441Z,1011.15
2016-10-01T09:16:31.197Z,1011.13
2016-10-01T09:17:31.955Z,1011.13
2016-10-01T09:18:32.738Z,1011.18
2016-10-01T09:19:33.526Z,1011.17
2016-10-01T09:20:34.281Z,1011.19
2016-10-01T09:21:36.310Z,1011.2
2016-10-01T09:22:37.077Z,1011.21
2016-10-01T09:23:37.894Z,1011.2
2016-10-01T09:24:38.612Z,1011.15
2016-10-01T09:25:39.353Z,1011.14
2016-10-01T09:26:40.198Z,1011.11
2016-10-01T09:27:40.991Z,1011.1
2016-10-01T09:28:41.767Z,1011.13
2016-10-01T09:29:42.649Z,1011.1
2016-10-01T09:30:43.539Z,1011.13
2016-10-01T09:31:44.351Z,1011.11
2016-10-01T09:32:45.094Z,1011.14
2016-10-01T09:33:45.840Z,1011.13
2016-10-01T09:34:46.782Z,1011.11
2016-10-01T09:35:47.671Z,1011.14
2016-10-01T09:36:48.433Z,1011.06
2016-10-01T09:37:49.285Z,1011.1
2016-10-01T09:38:50.043Z,1011.03
2016-10-01T09:39:50.849Z,1011.03
2016-10-01T09:40:51.555Z,1011.01
2016-10-01T09:41:52.305Z,1010.98
2016-10-01T09:42:53.042Z,1010.99
2016-10-01T09:43:54.050Z,1010.96
2016-10-01T09:44:54.785Z,1010.94
2016-10-01T09:45:55.530Z,1010.92
2016-10-01T09:46:56.298Z,1010.91
2016-10-01T09:47:57.040Z,1010.88
2016-10-01T09:48:57.820Z,1010.82
2016-10-01T09:49:58.563Z,1010.77
2016-10-01T09:50:59.311Z,1010.71
2016-10-01T09:52:00.076Z,1010.66
2016-10-01T09:53:00.804Z,1010.59
2016-10-01T09:54:01.611Z,1010.57
2016-10-01T09:55:02.330Z,1010.54
2016-10-01T09:56:03.086Z,1010.5
2016-10-01T09:57:03.859Z,1010.47
2016-10-01T09:58:04.642Z,1010.49
2016-10-01T09:59:05.365Z,1010.52
2016-10-01T10:00:06.066Z,1010.56
2016-10-01T10:01:06.766Z,1010.58
2016-10-01T10:02:07.496Z,1010.6
2016-10-01T10:03:08.206Z,1010.64
2016-10-01T10:04:08.908Z,1010.65
2016-10-01T10:05:09.619Z,1010.64
2016-10-01T10:06:10.320Z,1010.7
2016-10-01T10:07:11.006Z,1010.62
2016-10-01T10:08:11.703Z,1010.64
2016-10-01T10:09:12.397Z,1010.61
2016-10-01T10:10:13.104Z,1010.61
2016-10-01T10:11:13.810Z,1010.66
2016-10-01T10:12:14.563Z,1010.67
2016-10-01T10:13:15.256Z,1010.67
2016-10-01T10:14:15.965Z,1010.72
2016-10-01T10:15:16.661Z,1010.71
2016-10-01T10:16:17.361Z,1010.72
2016-10-01T10:17:18.139Z,1010.75
2016-10-01T10:18:18.868Z,1010.79
2016-10-01T10:19:19.591Z,1010.81
2016-10-01T10:20:20.297Z,1010.77
2016-10-01T10:21:21.028Z,1010.82
2016-10-01T10:22:21.800Z,1010.81
2016-10-01T10:23:22.501Z,1010.78
2016-10-01T10:24:23.299Z,1010.78
2016-10-01T10:25:24.047Z,1010.76
2016-10-01T10:26:24.735Z,1010.8
2016-10-01T10:27:25.521Z,1010.78
2016-10-01T10:28:26.221Z,1010.85
2016-10-01T10:29:26.948Z,1010.8
2016-10-01T10:30:27.659Z,1010.78
2016-10-01T10:31:28.343Z,1010.79
2016-10-01T10:32:29.121Z,1010.78
2016-10-01T10:33:29.830Z,1010.8
2016-10-01T10:34:30.563Z,1010.77
2016-10-01T10:35:32.772Z,1010.71
2016-10-01T10:36:34.416Z,1010.7
2016-10-01T10:37:35.742Z,1010.66
2016-10-01T10:38:38.268Z,1010.68
2016-10-01T10:39:38.960Z,1010.74
2016-10-01T10:40:39.699Z,1010.76
2016-10-01T10:41:40.394Z,1010.76
2016-10-01T10:42:41.113Z,1010.71
2016-10-01T10:43:41.807Z,1010.69
2016-10-01T10:44:42.586Z,1010.66
2016-10-01T10:45:43.387Z,1010.6
2016-10-01T10:46:44.200Z,1010.61
2016-10-01T10:47:44.926Z,1010.54
2016-10-01T10:48:45.683Z,1010.51
2016-10-01T10:49:46.466Z,1010.51
2016-10-01T10:50:47.186Z,1010.48
2016-10-01T10:51:47.942Z,1010.42
2016-10-01T10:52:48.668Z,1010.42
2016-10-01T10:53:49.391Z,1010.42
2016-10-01T10:54:50.132Z,1010.42
2016-10-01T10:55:50.871Z,1010.43
2016-10-01T10:56:51.608Z,1010.41
2016-10-01T10:57:52.360Z,1010.35
2016-10-01T10:58:53.069Z,1010.32
2016-10-01T10:59:53.791Z,1010.3
2016-10-01T11:00:54.492Z,1010.34
2016-10-01T11:01:55.355Z,1010.37
2016-10-01T11:02:56.123Z,1010.43
2016-10-01T11:03:56.827Z,1010.43
2016-10-01T11:04:57.616Z,1010.44
2016-10-01T11:05:58.580Z,1010.43
2016-10-01T11:07:00.607Z,1010.4
2016-10-01T11:08:07.907Z,1010.37
2016-10-01T11:09:10.387Z,1010.28
2016-10-01T11:10:11.111Z,1010.27
2016-10-01T11:11:11.947Z,1010.24
2016-10-01T11:12:12.696Z,1010.24
2016-10-01T11:13:13.488Z,1010.24
2016-10-01T11:14:14.182Z,1010.23
2016-10-01T11:15:14.904Z,1010.22
2016-10-01T11:16:15.679Z,1010.2
2016-10-01T11:17:16.383Z,1010.17
2016-10-01T11:18:17.110Z,1010.18
2016-10-01T11:19:17.870Z,1010.18
2016-10-01T11:20:18.816Z,1010.25
2016-10-01T11:21:19.383Z,1010.21
2016-10-01T11:22:20.351Z,1010.18
2016-10-01T11:23:21.044Z,1010.16
2016-10-01T11:24:21.757Z,1010.21
2016-10-01T11:25:22.436Z,1010.25
2016-10-01T11:26:23.124Z,1010.23
2016-10-01T11:27:23.834Z,1010.26
2016-10-01T11:28:24.523Z,1010.23
2016-10-01T11:29:25.224Z,1010.16
2016-10-01T11:30:26.023Z,1010.13
2016-10-01T11:31:26.863Z,1010.12
2016-10-01T11:32:27.530Z,1010.06
2016-10-01T11:33:28.238Z,1010.02
2016-10-01T11:34:28.918Z,1010.08
2016-10-01T11:35:29.776Z,1009.95
2016-10-01T11:36:31.783Z,1009.99
2016-10-01T11:37:33.283Z,1009.98
2016-10-01T11:38:33.240Z,1010
2016-10-01T11:39:34.088Z,1010.03
2016-10-01T11:40:34.791Z,1010.04
2016-10-01T11:41:35.491Z,1010.05
2016-10-01T11:42:36.730Z,1010.1
2016-10-01T11:43:37.549Z,1010.1
2016-10-01T11:44:38.484Z,1010.06
2016-10-01T11:45:39.239Z,1010.09
2016-10-01T11:46:39.948Z,1010.08
2016-10-01T11:47:40.680Z,1010.05
2016-10-01T11:48:41.389Z,1010.03
2016-10-01T11:49:42.078Z,1010.05
2016-10-01T11:50:43.012Z,1009.99
2016-10-01T11:51:44.521Z,1010.01
2016-10-01T11:52:48.803Z,1009.96
2016-10-01T11:53:51.337Z,1009.98
2016-10-01T11:54:57.492Z,1009.97
2016-10-01T11:56:01.525Z,1010
2016-10-01T11:57:03.227Z,1009.97
2016-10-01T11:58:04.055Z,1009.95
2016-10-01T11:59:04.803Z,1009.91
2016-10-01T12:00:05.524Z,1009.89
2016-10-01T12:01:06.227Z,1009.89
2016-10-01T12:02:07.805Z,1009.77
2016-10-01T12:03:08.914Z,1009.75
2016-10-01T12:04:09.658Z,1009.81
2016-10-01T12:05:11.328Z,1009.69
2016-10-01T12:06:13.975Z,1009.73
2016-10-01T12:07:14.906Z,1009.74
2016-10-01T12:08:14.848Z,1009.73
2016-10-01T12:09:15.588Z,1009.72
2016-10-01T12:10:16.360Z,1009.72
2016-10-01T12:11:17.583Z,1009.73
2016-10-01T12:12:19.687Z,1009.69
2016-10-01T12:13:20.733Z,1009.69
2016-10-01T12:14:21.468Z,1009.66
2016-10-01T12:15:22.166Z,1009.64
2016-10-01T12:16:23.274Z,1009.61
2016-10-01T12:17:29.252Z,1009.6